Time;durP1;ratioP1;P1;durP2;ratioP2;P2;SDS_P1;SDS_P2;PMS_P1;PMS_P2;Temp;Humidity;BMP_temperature;BMP_pressure;BME280_temperature;BME280_humidity;BME280_pressure;Samples;Min_cycle;Max_cycle;Signal;HPM_P1;HPM_P2
2023/12/22 00:00:21;;;;;;;14.93;9.37;;;;;;;-0.25;100.00;98211.97;5098859;28;20032;-64
2023/12/22 00:02:47;;;;;;;16.30;10.47;;;;;;;-0.57;100.00;98166.38;5095320;28;20039;-65
2023/12/22 00:05:13;;;;;;;16.37;10.30;;;;;;;-0.06;100.00;98217.75;5095605;28;20044;-63
2023/12/22 00:07:39;;;;;;;13.60;8.80;;;;;;;-0.03;100.00;98206.16;5095695;28;20032;-65
2023/12/22 00:10:04;;;;;;;14.80;9.03;;;;;;;-0.19;100.00;98153.78;5095573;28;20315;-64
2023/12/22 00:12:30;;;;;;;16.97;8.73;;;;;;;0.15;100.00;98211.31;5094697;28;20031;-62
2023/12/22 00:14:56;;;;;;;15.27;9.70;;;;;;;-0.03;100.00;98193.06;5094815;28;20036;-64
2023/12/22 00:17:22;;;;;;;16.77;8.67;;;;;;;0.07;100.00;98211.28;5094537;28;20075;-64
2023/12/22 00:19:48;;;;;;;16.50;9.10;;;;;;;0.06;100.00;98209.66;5094167;28;20135;-64
2023/12/22 00:22:13;;;;;;;20.27;10.43;;;;;;;-0.23;100.00;98147.25;5094239;28;20491;-64
2023/12/22 00:24:40;;;;;;;18.10;9.60;;;;;;;0.01;100.00;98189.19;5094269;28;20024;-64
2023/12/22 00:27:06;;;;;;;17.90;10.27;;;;;;;0.06;100.00;98189.53;5094146;28;20040;-64
2023/12/22 00:29:35;;;;;;;18.33;9.93;;;;;;;0.09;100.00;98204.91;5094060;28;20769;-64
2023/12/22 00:32:01;;;;;;;16.70;10.03;;;;;;;0.04;100.00;98196.72;5093905;28;20274;-63
2023/12/22 00:34:27;;;;;;;15.27;8.40;;;;;;;0.08;100.00;98187.56;5093993;28;20301;-62
2023/12/22 00:36:52;;;;;;;12.90;7.97;;;;;;;0.03;100.00;98189.84;5094187;28;20269;-63
2023/12/22 00:39:18;;;;;;;16.57;8.67;;;;;;;-0.04;100.00;98167.88;5093731;28;20032;-65
2023/12/22 00:41:43;;;;;;;16.77;10.00;;;;;;;0.09;100.00;98177.91;5093848;28;20032;-64
2023/12/22 00:44:09;;;;;;;16.47;9.43;;;;;;;0.21;100.00;98187.91;5094161;28;20042;-63
2023/12/22 00:46:34;;;;;;;18.50;10.33;;;;;;;0.24;100.00;98182.34;5093964;28;20042;-63
2023/12/22 00:49:00;;;;;;;14.43;10.23;;;;;;;0.09;100.00;98152.56;5093624;28;20372;-62
2023/12/22 00:51:25;;;;;;;15.57;9.67;;;;;;;0.37;100.00;98170.63;5093257;28;20123;-63
2023/12/22 00:53:51;;;;;;;16.20;9.63;;;;;;;0.29;100.00;98169.63;5093882;28;20128;-64
2023/12/22 00:56:16;;;;;;;16.13;8.93;;;;;;;0.18;100.00;98163.88;5093606;28;20044;-64
2023/12/22 00:58:42;;;;;;;16.80;10.43;;;;;;;0.15;100.00;98165.00;5093568;28;20036;-63
2023/12/22 01:01:07;;;;;;;15.00;9.83;;;;;;;0.18;100.00;98164.69;5093683;28;20047;-64
2023/12/22 01:03:33;;;;;;;16.60;9.63;;;;;;;0.08;100.00;98158.78;5092114;28;20519;-63
2023/12/22 01:05:59;;;;;;;20.03;11.90;;;;;;;-0.13;100.00;98148.75;5093629;28;20075;-64
2023/12/22 01:08:24;;;;;;;19.67;11.67;;;;;;;-0.23;100.00;98148.06;5094464;28;20032;-63
2023/12/22 01:10:50;;;;;;;19.60;12.23;;;;;;;-0.31;100.00;98154.06;5093146;28;20055;-65
2023/12/22 01:13:15;;;;;;;20.33;12.93;;;;;;;-0.54;100.00;98118.19;5093818;28;20529;-63
2023/12/22 01:15:43;;;;;;;23.33;13.27;;;;;;;-0.48;100.00;98139.28;5093245;28;20048;-65
2023/12/22 01:18:11;;;;;;;25.33;12.85;;;;;;;-0.54;100.00;98141.72;5093185;28;20036;-63
2023/12/22 01:20:37;;;;;;;31.02;17.27;;;;;;;-0.61;100.00;98133.66;5093242;28;20047;-61
2023/12/22 01:23:03;;;;;;;24.80;13.87;;;;;;;-0.71;100.00;98115.47;5091590;28;20197;-63
2023/12/22 01:25:29;;;;;;;29.23;14.27;;;;;;;-0.59;100.00;98129.09;5092754;28;20115;-63
2023/12/22 01:27:54;;;;;;;36.00;18.07;;;;;;;-0.76;100.00;98094.22;5092533;28;20094;-65
2023/12/22 01:30:20;;;;;;;34.53;18.60;;;;;;;-0.82;100.00;98088.81;5091356;28;20040;-64
2023/12/22 01:32:46;;;;;;;35.83;18.57;;;;;;;-0.98;100.00;98079.09;5091435;28;20063;-64
2023/12/22 01:35:12;;;;;;;33.80;18.50;;;;;;;-0.83;100.00;98113.31;5092432;28;20025;-63
2023/12/22 01:37:38;;;;;;;39.03;18.67;;;;;;;-0.82;100.00;98104.50;5092500;28;20123;-65
2023/12/22 01:40:05;;;;;;;41.50;18.80;;;;;;;-0.95;100.00;98082.19;5092230;28;20274;-63
2023/12/22 01:42:31;;;;;;;39.27;19.93;;;;;;;-0.75;100.00;98100.28;5092249;28;20040;-65
2023/12/22 01:44:56;;;;;;;41.03;21.27;;;;;;;-0.70;100.00;98109.28;5092108;28;20647;-62
2023/12/22 01:47:22;;;;;;;43.30;20.03;;;;;;;-0.70;100.00;98100.63;5092426;28;20044;-64
2023/12/22 01:49:48;;;;;;;40.27;18.47;;;;;;;-0.69;100.00;98104.88;5092473;28;20036;-64
2023/12/22 01:52:15;;;;;;;40.80;20.77;;;;;;;-0.66;100.00;98099.31;5092505;28;20039;-63
2023/12/22 01:54:40;;;;;;;37.80;19.83;;;;;;;-0.80;100.00;98071.19;5092384;28;20027;-63
2023/12/22 01:57:06;;;;;;;38.47;17.77;;;;;;;-0.69;100.00;98083.97;5092254;28;20282;-64
2023/12/22 01:59:34;;;;;;;35.27;17.23;;;;;;;-0.95;100.00;98045.63;5092039;28;20038;-63
2023/12/22 02:02:03;;;;;;;36.03;18.03;;;;;;;-0.80;100.00;98060.72;5090937;28;20040;-65
2023/12/22 02:04:30;;;;;;;36.67;18.03;;;;;;;-0.68;100.00;98086.41;5092508;28;20266;-63
2023/12/22 02:07:01;;;;;;;28.83;14.13;;;;;;;-0.78;100.00;98080.50;5092317;28;20270;-64
2023/12/22 02:09:27;;;;;;;33.30;15.27;;;;;;;-0.82;100.00;98073.97;5091489;28;20361;-63
2023/12/22 02:11:53;;;;;;;26.97;15.07;;;;;;;-0.95;100.00;98063.91;5092280;28;20274;-64
2023/12/22 02:14:20;;;;;;;25.90;14.23;;;;;;;-1.00;100.00;98053.13;5091646;28;20270;-64
2023/12/22 02:17:02;;;;;;;25.43;14.13;;;;;;;-0.98;100.00;98071.25;5090408;28;20568;-64
2023/12/22 02:19:34;;;;;;;26.60;12.83;;;;;;;-0.96;100.00;98061.47;5090569;28;20305;-64
2023/12/22 02:22:05;;;;;;;24.80;13.33;;;;;;;-1.00;100.00;98041.84;5091990;28;20325;-64
2023/12/22 02:24:31;;;;;;;26.50;13.37;;;;;;;-0.88;100.00;98042.38;5091858;28;20266;-64
2023/12/22 02:27:04;;;;;;;26.37;15.07;;;;;;;-0.87;100.00;98042.22;5092005;28;20265;-63
2023/12/22 02:29:35;;;;;;;23.50;13.10;;;;;;;-1.04;100.00;98011.78;5092103;28;20031;-64
2023/12/22 02:32:10;;;;;;;25.17;13.13;;;;;;;-1.10;100.00;98002.78;5091901;28;20269;-65
2023/12/22 02:34:38;;;;;;;25.70;11.80;;;;;;;-0.94;100.00;98031.59;5094621;28;20274;-61
2023/12/22 02:37:08;;;;;;;19.17;12.37;;;;;;;-1.08;100.00;98000.03;5094479;28;20278;-63
2023/12/22 02:39:35;;;;;;;23.27;12.23;;;;;;;-0.97;100.00;98018.84;5090732;28;20278;-64
2023/12/22 02:42:03;;;;;;;24.93;12.50;;;;;;;-1.10;100.00;98002.78;5091964;28;20296;-67
2023/12/22 02:44:29;;;;;;;23.30;11.90;;;;;;;-1.02;100.00;98010.66;5091860;28;20301;-66
2023/12/22 02:46:55;;;;;;;23.23;12.17;;;;;;;-1.16;100.00;97989.53;5091511;28;20036;-62
2023/12/22 02:49:20;;;;;;;22.80;12.40;;;;;;;-1.20;100.00;97981.19;5091564;28;20035;-66
2023/12/22 02:51:46;;;;;;;22.13;11.17;;;;;;;-1.14;100.00;98001.47;5091295;28;20050;-66
2023/12/22 02:54:11;;;;;;;20.40;10.77;;;;;;;-1.24;100.00;97985.09;5090149;28;20032;-66
2023/12/22 02:56:37;;;;;;;18.43;10.33;;;;;;;-1.29;100.00;97966.47;5091711;28;20166;-65
2023/12/22 02:59:02;;;;;;;20.97;9.83;;;;;;;-1.27;100.00;97982.78;5091922;28;20085;-65
2023/12/22 03:01:28;;;;;;;20.37;9.70;;;;;;;-1.57;100.00;97926.69;5091965;28;20117;-64
2023/12/22 03:03:54;;;;;;;19.50;11.17;;;;;;;-1.37;100.00;97950.75;5090485;28;20047;-63
2023/12/22 03:06:19;;;;;;;16.37;9.97;;;;;;;-1.21;100.00;97992.59;5091381;28;20115;-64
2023/12/22 03:08:45;;;;;;;15.97;9.87;;;;;;;-1.21;100.00;97984.78;5091158;28;20036;-68
2023/12/22 03:11:10;;;;;;;14.60;8.70;;;;;;;-1.20;100.00;97975.16;5091729;28;20036;-64
2023/12/22 03:13:36;;;;;;;17.30;9.03;;;;;;;-1.22;100.00;97966.66;5091407;28;20040;-64
2023/12/22 03:16:02;;;;;;;18.43;8.90;;;;;;;-1.17;100.00;97972.22;5091469;28;20134;-66
2023/12/22 03:18:28;;;;;;;16.53;9.33;;;;;;;-1.19;100.00;97975.00;5089801;28;20044;-66
2023/12/22 03:20:53;;;;;;;13.97;8.67;;;;;;;-1.39;100.00;97937.06;5092629;28;20290;-65
2023/12/22 03:23:19;;;;;;;18.07;10.47;;;;;;;-1.32;100.00;97948.50;5095170;28;20036;-66
2023/12/22 03:25:44;;;;;;;16.03;8.13;;;;;;;-1.16;100.00;97969.44;5095036;28;20036;-67
2023/12/22 03:28:10;;;;;;;17.67;9.07;;;;;;;-1.52;100.00;97905.31;5094072;28;20039;-63
2023/12/22 03:30:37;;;;;;;15.80;8.97;;;;;;;-1.36;100.00;97936.75;5095487;28;20067;-63
2023/12/22 03:33:03;;;;;;;17.07;10.30;;;;;;;-1.17;100.00;97954.75;5095589;28;20498;-65
2023/12/22 03:35:29;;;;;;;14.70;7.93;;;;;;;-1.11;100.00;97956.75;5095228;28;20262;-65
2023/12/22 03:37:54;;;;;;;15.13;10.00;;;;;;;-1.03;100.00;97967.22;5095580;28;20488;-63
2023/12/22 03:40:20;;;;;;;14.73;8.97;;;;;;;-1.03;100.00;97956.78;5095302;28;20063;-63
2023/12/22 03:42:45;;;;;;;11.17;7.57;;;;;;;-0.98;100.00;97959.72;5095573;28;20077;-64
2023/12/22 03:45:11;;;;;;;16.83;9.57;;;;;;;-1.13;100.00;97927.38;5094669;28;20044;-64
2023/12/22 03:47:36;;;;;;;12.67;7.67;;;;;;;-1.03;100.00;97927.22;5094977;28;20043;-64
2023/12/22 03:50:02;;;;;;;16.77;8.30;;;;;;;-1.03;100.00;97935.88;5094912;28;20460;-65
2023/12/22 03:52:30;;;;;;;13.38;7.50;;;;;;;-1.16;100.00;97917.22;5094547;28;20035;-65
2023/12/22 03:54:55;;;;;;;14.60;8.80;;;;;;;-1.19;100.00;97935.81;5094623;28;20051;-63
2023/12/22 03:57:21;;;;;;;13.40;8.03;;;;;;;-1.26;100.00;97930.41;5094769;28;20032;-65
2023/12/22 03:59:47;;;;;;;14.13;8.63;;;;;;;-1.26;100.00;97912.13;5094438;28;20545;-66
2023/12/22 04:02:12;;;;;;;22.60;9.07;;;;;;;-1.25;100.00;97915.56;5094359;28;20180;-64
2023/12/22 04:04:38;;;;;;;12.60;7.90;;;;;;;-1.22;100.00;97928.31;5094299;28;20202;-66
2023/12/22 04:07:04;;;;;;;13.33;7.93;;;;;;;-1.39;100.00;97905.72;5094335;28;20028;-63
2023/12/22 04:09:29;;;;;;;13.77;8.47;;;;;;;-1.28;100.00;97915.88;5094201;28;20365;-64
2023/12/22 04:11:55;;;;;;;15.17;9.23;;;;;;;-1.12;100.00;97926.41;5094275;28;20433;-64
2023/12/22 04:14:20;;;;;;;14.87;8.60;;;;;;;-1.08;100.00;97922.50;5094067;28;20035;-62
2023/12/22 04:16:46;;;;;;;11.63;7.87;;;;;;;-1.12;100.00;97897.66;5094251;28;20063;-65
2023/12/22 04:19:13;;;;;;;10.50;7.20;;;;;;;-1.09;100.00;97883.47;5093682;28;20055;-64
2023/12/22 04:21:39;;;;;;;12.87;6.80;;;;;;;-0.83;100.00;97909.50;5093795;28;20040;-63
2023/12/22 04:24:05;;;;;;;15.77;7.80;;;;;;;-0.81;100.00;97897.09;5092701;28;20694;-64
2023/12/22 04:26:31;;;;;;;12.63;6.77;;;;;;;-0.73;100.00;97902.31;5093854;28;20085;-64
2023/12/22 04:28:56;;;;;;;12.23;7.87;;;;;;;-0.69;100.00;97903.63;5093823;28;20346;-66
2023/12/22 04:31:22;;;;;;;14.27;9.03;;;;;;;-0.80;100.00;97883.88;5093943;28;20036;-64
2023/12/22 04:33:47;;;;;;;14.33;7.70;;;;;;;-0.83;100.00;97878.16;5092962;28;20150;-64
2023/12/22 04:36:14;;;;;;;12.67;8.37;;;;;;;-1.12;100.00;97816.72;5093676;28;20040;-66
2023/12/22 04:38:41;;;;;;;12.47;7.73;;;;;;;-0.94;100.00;97856.56;5093679;28;20273;-64
2023/12/22 04:41:06;;;;;;;15.43;9.37;;;;;;;-0.80;100.00;97868.19;5093489;28;20031;-63
2023/12/22 04:43:32;;;;;;;15.30;9.50;;;;;;;-0.85;100.00;97859.19;5093470;28;20261;-63
2023/12/22 04:46:00;;;;;;;14.57;8.93;;;;;;;-1.37;100.00;97776.69;5093263;28;20616;-64
2023/12/22 04:48:26;;;;;;;13.07;9.05;;;;;;;-0.64;100.00;97881.25;5093671;28;20047;-67
2023/12/22 04:51:07;;;;;;;12.67;7.67;;;;;;;-0.65;100.00;97881.41;5094536;28;20036;-67
2023/12/22 04:53:32;;;;;;;15.50;9.40;;;;;;;-0.73;100.00;97855.28;5075468;28;20046;-65
2023/12/22 04:55:58;;;;;;;14.27;9.03;;;;;;;-0.59;100.00;97872.91;5094249;28;20636;-64
2023/12/22 04:58:24;;;;;;;12.60;8.13;;;;;;;-0.72;100.00;97851.69;5093651;28;20085;-65
2023/12/22 05:00:49;;;;;;;12.00;7.77;;;;;;;-0.57;100.00;97868.38;5093791;28;20044;-65
2023/12/22 05:03:15;;;;;;;11.57;8.57;;;;;;;-0.56;100.00;97861.34;5075487;28;20043;-63
2023/12/22 05:05:41;;;;;;;12.13;7.23;;;;;;;-0.63;100.00;97848.91;5093533;28;20127;-62
2023/12/22 05:08:06;;;;;;;16.53;9.17;;;;;;;-0.51;100.00;97867.72;5093022;28;20040;-63
2023/12/22 05:10:32;;;;;;;13.73;8.60;;;;;;;-0.54;100.00;97862.00;5093077;28;20324;-64
2023/12/22 05:12:58;;;;;;;13.97;8.43;;;;;;;-0.50;100.00;97863.31;5093060;28;20032;-64
2023/12/22 05:15:23;;;;;;;11.80;8.43;;;;;;;-0.56;100.00;97862.16;5092960;28;20111;-65
2023/12/22 05:17:50;;;;;;;11.23;7.83;;;;;;;-0.55;100.00;97855.16;5093604;28;20048;-64
2023/12/22 05:20:15;;;;;;;13.80;8.00;;;;;;;-0.74;100.00;97820.50;5091682;28;20532;-63
2023/12/22 05:22:41;;;;;;;11.97;8.43;;;;;;;-0.65;100.00;97829.16;5092879;28;20286;-64
2023/12/22 05:25:08;;;;;;;14.40;7.87;;;;;;;-0.57;100.00;97855.31;5092558;28;20039;-63
2023/12/22 05:27:33;;;;;;;11.67;9.27;;;;;;;-0.57;100.00;97844.84;5091131;28;20032;-64
2023/12/22 05:30:01;;;;;;;46.87;36.90;;;;;;;-0.71;100.00;97819.34;5092567;28;20345;-64
2023/12/22 05:32:30;;;;;;;14.03;9.83;;;;;;;-0.59;100.00;97846.78;5092665;28;20089;-67
2023/12/22 05:34:55;;;;;;;69.70;53.87;;;;;;;-0.75;100.00;97818.88;5092804;28;20749;-64
2023/12/22 05:37:21;;;;;;;13.27;8.87;;;;;;;-0.59;100.00;97836.31;5092842;28;20950;-63
2023/12/22 05:39:46;;;;;;;11.37;7.30;;;;;;;-0.57;100.00;97826.56;5092785;28;20474;-66
2023/12/22 05:42:12;;;;;;;15.00;8.30;;;;;;;-0.59;100.00;97831.09;5092750;28;20044;-66
2023/12/22 05:44:38;;;;;;;18.60;10.80;;;;;;;-0.89;100.00;97769.03;5091468;28;20097;-63
2023/12/22 05:47:04;;;;;;;16.27;7.60;;;;;;;-0.46;100.00;97825.41;5092568;28;20032;-66
2023/12/22 05:49:30;;;;;;;12.07;7.93;;;;;;;-0.43;100.00;97832.91;5092206;28;20804;-64
2023/12/22 05:51:56;;;;;;;14.17;8.50;;;;;;;-0.52;100.00;97810.38;5092389;28;20273;-65
2023/12/22 05:54:21;;;;;;;13.23;7.53;;;;;;;-0.56;100.00;97809.88;5091062;28;20035;-63
2023/12/22 05:56:48;;;;;;;11.43;7.80;;;;;;;-0.52;100.00;97813.00;5092229;28;20050;-62
2023/12/22 05:59:13;;;;;;;12.07;8.00;;;;;;;-0.49;100.00;97817.88;5091741;28;20131;-66
2023/12/22 06:01:39;;;;;;;11.17;7.60;;;;;;;-0.46;100.00;97828.81;5092008;28;20937;-63
2023/12/22 06:04:05;;;;;;;11.83;7.57;;;;;;;-0.53;100.00;97830.47;5092044;28;20046;-63
2023/12/22 06:06:31;;;;;;;10.83;7.27;;;;;;;-0.47;100.00;97832.41;5093106;28;20502;-65
2023/12/22 06:08:56;;;;;;;10.63;6.93;;;;;;;-0.42;100.00;97824.91;5093035;28;20262;-65
2023/12/22 06:11:22;;;;;;;13.97;8.63;;;;;;;-0.68;100.00;97772.78;5093290;28;20036;-65
2023/12/22 06:13:48;;;;;;;13.13;7.67;;;;;;;-0.39;100.00;97823.75;5093143;28;20123;-65
2023/12/22 06:16:14;;;;;;;13.10;9.10;;;;;;;-0.44;100.00;97820.81;5092901;28;20143;-66
2023/12/22 06:18:43;;;;;;;10.63;7.10;;;;;;;-0.50;100.00;97806.59;5093357;28;20048;-67
2023/12/22 06:21:10;;;;;;;13.77;8.03;;;;;;;-0.45;100.00;97813.97;5091660;28;20304;-65
2023/12/22 06:23:36;;;;;;;13.43;9.17;;;;;;;-0.48;100.00;97791.56;5091141;28;20270;-65
2023/12/22 06:26:07;;;;;;;13.97;7.57;;;;;;;-0.52;100.00;97792.88;5091699;28;20262;-66
2023/12/22 06:28:33;;;;;;;12.60;7.37;;;;;;;-0.43;100.00;97793.69;5100711;28;20606;-67
2023/12/22 06:30:58;;;;;;;11.53;8.07;;;;;;;-0.40;100.00;97809.84;5103473;28;20307;-64
2023/12/22 06:33:24;;;;;;;13.37;8.30;;;;;;;-0.81;100.00;97750.78;5095580;28;20039;-63
2023/12/22 06:35:53;;;;;;;12.30;7.50;;;;;;;-0.50;100.00;97801.38;5100872;28;20058;-63
2023/12/22 06:38:19;;;;;;;14.93;7.10;;;;;;;-0.50;100.00;97817.06;5100538;28;20032;-63
2023/12/22 06:40:46;;;;;;;11.60;7.77;;;;;;;-0.42;100.00;97822.28;5102206;28;20628;-63
2023/12/22 06:43:12;;;;;;;12.47;8.37;;;;;;;-0.53;100.00;97795.66;5101748;28;20281;-65
2023/12/22 06:45:39;;;;;;;11.80;7.17;;;;;;;-0.42;100.00;97809.22;5100323;28;20262;-64
2023/12/22 06:48:06;;;;;;;10.87;7.00;;;;;;;-0.39;100.00;97824.56;5100657;28;20780;-63
2023/12/22 06:50:32;;;;;;;11.50;6.87;;;;;;;-0.36;100.00;97823.41;5102622;28;20670;-64
2023/12/22 06:52:57;;;;;;;11.23;7.33;;;;;;;-0.39;100.00;97818.53;5102681;28;20271;-65
2023/12/22 06:55:23;;;;;;;11.67;9.10;;;;;;;-0.54;100.00;97791.44;5101465;28;20478;-65
2023/12/22 06:57:49;;;;;;;12.70;8.30;;;;;;;-0.55;100.00;97803.69;5105034;28;20076;-65
2023/12/22 07:00:16;;;;;;;14.83;9.20;;;;;;;-0.56;100.00;97807.28;5107656;28;20545;-66
2023/12/22 07:02:41;;;;;;;14.23;8.63;;;;;;;-0.55;100.00;97790.59;5104322;28;20055;-64
2023/12/22 07:05:10;;;;;;;17.30;11.07;;;;;;;-0.43;100.00;97812.81;5106995;28;20767;-64
2023/12/22 07:07:36;;;;;;;13.00;8.55;;;;;;;-0.45;100.00;97817.38;5104457;28;20047;-63
2023/12/22 07:10:02;;;;;;;11.27;7.47;;;;;;;-0.95;100.00;97724.31;5106707;28;20027;-65
2023/12/22 07:12:30;;;;;;;13.63;8.30;;;;;;;-0.51;100.00;97812.00;5105051;28;20261;-63
2023/12/22 07:14:55;;;;;;;12.97;7.87;;;;;;;-0.44;100.00;97795.50;5105902;28;20051;-68
2023/12/22 07:17:22;;;;;;;14.33;8.37;;;;;;;-0.42;100.00;97809.22;5103057;28;20051;-63
2023/12/22 07:19:48;;;;;;;13.40;9.13;;;;;;;-0.41;100.00;97805.63;5102853;28;20048;-66
2023/12/22 07:22:14;;;;;;;14.50;8.37;;;;;;;-0.52;100.00;97789.47;5103145;28;20292;-66
2023/12/22 07:24:40;;;;;;;12.37;9.40;;;;;;;-0.68;100.00;97767.56;5105578;28;20035;-66
2023/12/22 07:27:06;;;;;;;13.80;9.93;;;;;;;-0.90;100.00;97734.25;5104700;28;20266;-64
2023/12/22 07:29:31;;;;;;;13.70;7.57;;;;;;;-0.56;100.00;97781.13;5102649;28;20036;-65
2023/12/22 07:31:57;;;;;;;15.93;9.07;;;;;;;-1.07;100.00;97694.28;5103243;28;20044;-62
2023/12/22 07:34:22;;;;;;;9.43;6.53;;;;;;;-0.60;100.00;97763.31;5101882;28;20035;-66
2023/12/22 07:36:48;;;;;;;12.63;8.63;;;;;;;-0.59;100.00;97752.69;5104644;28;20706;-64
2023/12/22 07:39:14;;;;;;;14.00;10.13;;;;;;;-0.43;100.00;97775.38;5103684;28;20105;-63
2023/12/22 07:41:40;;;;;;;13.83;10.37;;;;;;;-0.44;100.00;97771.97;5102137;28;20027;-69
2023/12/22 07:44:05;;;;;;;19.27;9.50;;;;;;;-0.49;100.00;97755.13;5103867;28;20356;-63
2023/12/22 07:46:31;;;;;;;14.00;10.13;;;;;;;-0.34;100.00;97782.22;5103414;28;20040;-65
2023/12/22 07:48:57;;;;;;;14.40;8.60;;;;;;;-0.44;100.00;97765.91;5106249;28;20047;-65
2023/12/22 07:51:22;;;;;;;14.80;8.40;;;;;;;-0.57;100.00;97757.78;5102688;28;20039;-65
2023/12/22 07:53:47;;;;;;;12.97;8.63;;;;;;;-0.46;100.00;97778.34;5102169;28;20142;-63
2023/12/22 07:56:13;;;;;;;11.63;7.57;;;;;;;-0.48;100.00;97783.72;5102570;28;20035;-65
2023/12/22 07:58:39;;;;;;;11.53;8.17;;;;;;;-0.48;100.00;97770.66;5105466;28;20040;-64
2023/12/22 08:01:07;;;;;;;12.87;7.67;;;;;;;-0.43;100.00;97780.63;5102920;28;20465;-65
2023/12/22 08:03:33;;;;;;;9.50;6.50;;;;;;;-0.38;100.00;97752.97;5103670;28;21019;-66
2023/12/22 08:06:00;;;;;;;11.60;7.37;;;;;;;-0.35;100.00;97764.91;5102427;28;20036;-66
2023/12/22 08:08:26;;;;;;;12.20;7.10;;;;;;;-0.29;100.00;97777.31;5103265;28;20058;-65
2023/12/22 08:10:51;;;;;;;12.27;7.13;;;;;;;-0.60;100.00;97711.84;5104464;28;20879;-68
2023/12/22 08:13:17;;;;;;;13.63;7.47;;;;;;;-1.04;100.00;97641.72;5101845;28;20032;-65
2023/12/22 08:15:44;;;;;;;9.50;6.87;;;;;;;-0.31;100.00;97758.34;5102717;28;20055;-66
2023/12/22 08:18:10;;;;;;;11.97;7.70;;;;;;;-0.24;100.00;97774.22;5102759;28;20351;-67
2023/12/22 08:20:35;;;;;;;10.70;7.73;;;;;;;-0.29;100.00;97763.41;5103428;28;20277;-68
2023/12/22 08:23:01;;;;;;;7.47;6.07;;;;;;;-0.25;100.00;97777.81;5104936;28;20089;-75
2023/12/22 08:25:26;;;;;;;12.20;9.07;;;;;;;-0.37;100.00;97765.06;5106478;28;20109;-68
2023/12/22 08:27:52;;;;;;;11.47;7.97;;;;;;;-0.43;100.00;97746.63;5106196;28;20110;-76
2023/12/22 08:30:17;;;;;;;8.47;6.70;;;;;;;-0.32;100.00;97773.22;5107864;28;20126;-75
2023/12/22 08:32:43;;;;;;;11.00;6.77;;;;;;;-0.44;100.00;97752.84;5099918;28;20028;-73
2023/12/22 08:35:09;;;;;;;9.10;6.97;;;;;;;-0.53;100.00;97731.13;5102625;28;20039;-66
2023/12/22 08:37:34;;;;;;;8.80;6.43;;;;;;;-0.33;100.00;97762.94;5102884;28;20034;-67
2023/12/22 08:40:00;;;;;;;9.50;6.37;;;;;;;-0.31;100.00;97764.41;5103676;28;20036;-72
2023/12/22 08:42:27;;;;;;;11.90;7.27;;;;;;;-0.43;100.00;97734.38;5102398;28;20040;-68
2023/12/22 08:44:52;;;;;;;14.47;6.37;;;;;;;-0.37;100.00;97727.66;5103142;28;20403;-68
2023/12/22 08:47:18;;;;;;;10.53;7.07;;;;;;;-0.23;100.00;97742.66;5101596;28;20277;-66
2023/12/22 08:49:43;;;;;;;9.87;6.63;;;;;;;-0.11;100.00;97764.84;5102771;28;20031;-69
2023/12/22 08:52:09;;;;;;;9.50;6.50;;;;;;;-0.29;100.00;97730.25;5104125;28;20073;-70
2023/12/22 08:54:35;;;;;;;12.70;6.93;;;;;;;-0.35;100.00;97723.88;5105457;28;20118;-69
2023/12/22 08:57:02;;;;;;;14.77;7.70;;;;;;;-0.48;100.00;97700.06;5101433;28;20395;-66
2023/12/22 08:59:28;;;;;;;9.03;6.27;;;;;;;-0.19;100.00;97735.28;5103894;28;20028;-72
2023/12/22 09:01:53;;;;;;;9.27;6.83;;;;;;;-0.23;100.00;97724.34;5100218;28;20295;-69
2023/12/22 09:04:22;;;;;;;9.70;6.63;;;;;;;-0.17;100.00;97738.56;5101170;28;20046;-68
2023/12/22 09:06:50;;;;;;;12.07;6.72;;;;;;;-0.49;100.00;97676.72;5104125;28;20129;-69
2023/12/22 09:09:16;;;;;;;8.57;6.57;;;;;;;-0.21;100.00;97711.94;5113194;28;20035;-70
2023/12/22 09:11:42;;;;;;;8.97;5.83;;;;;;;-0.15;100.00;97715.66;5107073;28;20108;-69
2023/12/22 09:14:09;;;;;;;8.23;5.83;;;;;;;-0.10;100.00;97713.34;5100173;28;20067;-68
2023/12/22 09:16:37;;;;;;;9.67;6.07;;;;;;;-0.16;100.00;97719.25;5109279;28;20415;-68
2023/12/22 09:19:03;;;;;;;6.88;5.30;;;;;;;-0.10;100.00;97721.19;5099381;28;20276;-70
2023/12/22 09:21:29;;;;;;;9.40;5.90;;;;;;;-0.14;100.00;97720.72;5100246;28;20043;-67
2023/12/22 09:23:57;;;;;;;10.43;6.38;;;;;;;-0.14;100.00;97709.44;5103862;28;20278;-68
2023/12/22 09:26:22;;;;;;;11.73;7.43;;;;;;;-0.13;100.00;97714.50;5102405;28;20113;-72
2023/12/22 09:28:48;;;;;;;11.53;7.37;;;;;;;-0.17;100.00;97701.94;5104845;28;20031;-69
2023/12/22 09:31:14;;;;;;;12.10;8.53;;;;;;;-0.28;100.00;97686.63;5103290;28;20440;-69
2023/12/22 09:33:42;;;;;;;9.33;6.53;;;;;;;-0.19;100.00;97707.34;5099093;28;20063;-68
2023/12/22 09:36:09;;;;;;;7.13;5.72;;;;;;;-0.34;100.00;97652.31;5104538;28;20063;-69
2023/12/22 09:38:34;;;;;;;9.63;6.83;;;;;;;-0.16;100.00;97687.88;5103968;28;20036;-68
2023/12/22 09:41:01;;;;;;;8.37;6.10;;;;;;;-0.41;100.00;97637.47;5100899;28;20274;-67
2023/12/22 09:43:28;;;;;;;8.70;6.33;;;;;;;-0.18;100.00;97679.38;5103819;28;20092;-68
2023/12/22 09:45:55;;;;;;;9.43;6.47;;;;;;;-0.13;100.00;97690.16;5103352;28;20298;-68
2023/12/22 09:48:27;;;;;;;7.17;5.83;;;;;;;-0.20;100.00;97669.09;5101393;28;20265;-64
2023/12/22 09:50:56;;;;;;;8.67;5.87;;;;;;;-0.05;100.00;97671.78;5103906;28;20273;-68
2023/12/22 09:53:24;;;;;;;17.17;13.03;;;;;;;0.03;100.00;97670.97;5102542;28;20374;-69
2023/12/22 09:55:50;;;;;;;9.67;5.57;;;;;;;0.11;100.00;97676.97;5105581;28;20360;-68
2023/12/22 09:58:16;;;;;;;8.20;5.90;;;;;;;0.11;100.00;97679.56;5099998;28;20281;-68
2023/12/22 10:00:43;;;;;;;8.30;5.10;;;;;;;0.05;100.00;97669.81;5094106;28;20334;-66
2023/12/22 10:03:11;;;;;;;8.67;5.57;;;;;;;-0.56;100.00;97560.75;5096077;28;20715;-65
2023/12/22 10:05:37;;;;;;;10.07;5.70;;;;;;;0.14;100.00;97674.00;5095248;28;20269;-64
2023/12/22 10:08:04;;;;;;;12.70;7.43;;;;;;;0.05;100.00;97648.88;5107085;28;20319;-72
2023/12/22 10:10:30;;;;;;;7.77;5.40;;;;;;;0.25;100.00;97664.94;5112948;28;20444;-69
2023/12/22 10:12:58;;;;;;;8.30;5.43;;;;;;;0.19;100.00;97644.69;5111994;28;20602;-68
2023/12/22 10:15:26;;;;;;;7.00;5.38;;;;;;;0.27;100.00;97662.94;5093715;28;20276;-68
2023/12/22 10:18:35;;;;;;;7.37;4.70;;;;;;;0.22;100.00;97654.81;5111868;28;20039;-70
2023/12/22 10:21:01;;;;;;;7.03;5.00;;;;;;;0.21;100.00;97655.78;5111507;28;20402;-69
2023/12/22 10:24:19;;;;;;;8.00;6.37;;;;;;;0.16;100.00;97661.56;5110868;28;20716;-70
2023/12/22 10:26:46;;;;;;;6.85;5.35;;;;;;;0.04;100.00;97636.78;5100642;28;20032;-66
2023/12/22 10:29:12;;;;;;;7.37;5.70;;;;;;;0.07;100.00;97641.66;5091643;28;20036;-67
2023/12/22 10:32:13;;;;;;;6.37;5.50;;;;;;;0.08;100.00;97640.66;5090137;28;20765;-67
2023/12/22 10:34:39;;;;;;;8.80;5.70;;;;;;;0.01;100.00;97631.06;5009163;28;20272;-72
2023/12/22 10:37:05;;;;;;;6.93;5.33;;;;;;;0.11;100.00;97634.28;5089721;28;20276;-71
2023/12/22 10:39:31;;;;;;;8.47;5.30;;;;;;;0.08;100.00;97627.59;5102225;28;20036;-69
2023/12/22 10:41:59;;;;;;;5.43;4.40;;;;;;;0.13;100.00;97637.53;5096336;28;20468;-66
2023/12/22 10:44:26;;;;;;;6.03;4.87;;;;;;;-0.32;100.00;97558.81;5094040;28;20302;-68
2023/12/22 10:46:52;;;;;;;6.60;5.30;;;;;;;0.15;100.00;97631.13;5090272;28;20277;-67
2023/12/22 10:49:19;;;;;;;8.80;6.33;;;;;;;0.11;100.00;97603.69;5090062;28;20273;-68
2023/12/22 10:51:48;;;;;;;6.70;5.13;;;;;;;0.16;100.00;97609.22;5091131;28;20262;-66
2023/12/22 10:54:14;;;;;;;6.17;4.57;;;;;;;0.32;100.00;97638.91;5089904;28;20795;-66
2023/12/22 10:56:49;;;;;;;5.33;4.30;;;;;;;0.05;100.00;97593.09;5091186;28;20270;-70
2023/12/22 10:59:35;;;;;;;5.73;4.93;;;;;;;0.28;100.00;97627.94;5093549;28;20499;-69
2023/12/22 11:02:02;;;;;;;7.90;4.90;;;;;;;0.13;100.00;97625.25;5092950;28;20334;-70
2023/12/22 11:04:37;;;;;;;6.87;4.83;;;;;;;0.23;100.00;97614.56;5090015;28;20258;-66
2023/12/22 11:07:03;;;;;;;9.57;5.93;;;;;;;0.21;100.00;97596.41;5089637;28;20285;-66
2023/12/22 11:09:32;;;;;;;6.60;4.87;;;;;;;0.15;100.00;97596.31;5090960;28;20467;-68
2023/12/22 11:12:02;;;;;;;5.63;4.72;;;;;;;0.22;100.00;97618.16;5091824;28;20266;-66
2023/12/22 11:14:32;;;;;;;10.17;6.27;;;;;;;0.38;100.00;97622.50;5091406;28;20032;-70
2023/12/22 11:17:03;;;;;;;5.90;4.97;;;;;;;0.44;100.00;97627.03;5098793;28;20277;-66